Airfield :
LOGIN :

Register | Disclaimer

   EN    FR    IT 

 










Legend :    VFR   Marginal VFR   IFR   Intensive IFR   Very Intensive IFR
Visi :
Ceiling :
>= 8 km
>= 3000ft
5 to 8 km
1000 to 3000 ft
1500m to 5 km
500 to 1000 ft
800 to 1500m
200 to 500 ft
< 800m
< 200 ft
Symbols :   Thunderstorms  Fog  Heavy snow  Heavy precipitations  Wind > 20 kt
SIGMETs :     Misc.  Thunderstorms  Icing  Turbulence  Mountain Waves  Volcanic Ashes






- Airport Elevation : 375 ft
- IATA code : MST


EHBK - Maastricht Aachen

CURRENT METAR :
  • 121425Z AUTO VRB04KT 9999 TS NSC 34/18 Q1012 TEMPO 18015G25KT 5000 SHRA TSRA SCT060CB

EXPIRED METARs :
  • 121355Z AUTO 04006KT 330V110 9999 NCD 33/18 Q1013 TEMPO 18015G25KT 5000 SHRA TSRA SCT060CB
  • 121325Z AUTO 04006KT 340V090 9999 NCD 33/19 Q1013 TEMPO 5000 SHRA TSRA SCT060CB
  • 121255Z AUTO 05007KT 360V090 9999 NCD 32/18 Q1013 NOSIG
  • 121225Z AUTO 08005KT 030V130 9999 NCD 32/19 Q1013 NOSIG
  • 121155Z AUTO 08006KT 010V160 9999 NCD 32/18 Q1013 NOSIG

TAF TAF EHBK
Valid from the 12 at 12:00 until the 13 at 18:00 UTC


121120Z 1212/1318 13007KT CAVOK
PROB40
TEMPO 1214/1220 VRB20G30KT 4000 TSRAGR SCT060CB
PROB30
TEMPO 1220/1308 VRB12G22KT 5000 SHRA TSRA SCT060CB
PROB40
TEMPO 1314/1318 VRB15G25KT 4000 TSRAGR SCT045CB



MET'MAP, your aeronautical weather chart ! - Copyright ORBIFLY December 2007 - Disclaimer

ORBIFLY MET'MAP TEAM :

Programming & Development : Alexandra Zaïnal
Concept & original design : Baudouin d'Aumeries
Assistance for programming : Marc-Olivier Méhu
Technical & hardware support : Manuel Goepfert

Contact : metmap@orbifly.com




SOURCES & CREDITS :

   NOAA